This is the latest recevied weather packets stored in our database for station/object NW5W-12. If no packets are shown the sender has not sent any weather packets the latest 1 day(s).
| Time | Temp. | Humidity | Pressure | Rain* | Wind** | Luminosity | Snow |
|---|---|---|---|---|---|---|---|
| 1778022642 | 10.56° C | 58% | 1012.1 hPa | 0.51 mm | 0.45 m/s, 241° | - | - |
| 1778022342 | 10.56° C | 59% | 1012.1 hPa | 0.51 mm | 0.89 m/s, 193° | - | - |
| 1778022042 | 10° C | 60% | 1012.1 hPa | 0.51 mm | 0 m/s | - | - |
| 1778021742 | 10° C | 63% | 1012.2 hPa | 0.51 mm | 0 m/s | - | - |
| 1778021442 | 10° C | 64% | 1012.2 hPa | 0.51 mm | 0 m/s | - | - |
| 1778021142 | 9.44° C | 62% | 1012.2 hPa | 0.51 mm | 0 m/s | - | - |
| 1778020842 | 9.44° C | 63% | 1012.3 hPa | 0.51 mm | 1.34 m/s, 299° | - | - |
| 1778020542 | 9.44° C | 62% | 1012.3 hPa | 0.51 mm | 1.79 m/s, 351° | - | - |
| 1778020242 | 9.44° C | 66% | 1012.4 hPa | 0.51 mm | 1.34 m/s, 297° | - | - |
| 1778019942 | 8.89° C | 65% | 1012.4 hPa | 0.51 mm | 0.45 m/s, 337° | - | - |
| 1778019642 | 8.89° C | 64% | 1012.5 hPa | 0.51 mm | 0.89 m/s, 49° | - | - |
| 1778019342 | 9.44° C | 67% | 1012.6 hPa | 0.51 mm | 0 m/s | - | - |
| 1778019042 | 9.44° C | 64% | 1012.6 hPa | 0.51 mm | 0.89 m/s, 309° | - | - |
| 1778018742 | 8.89° C | 59% | 1012.7 hPa | 0.51 mm | 0 m/s | - | - |
| 1778018142 | 8.89° C | 58% | 1012.7 hPa | 0.51 mm | 0 m/s | - | - |
| 1778017842 | 8.89° C | 60% | 1012.7 hPa | 0.51 mm | 0 m/s | - | - |
| 1778017542 | 8.33° C | 60% | 1012.6 hPa | 0.51 mm | 0.89 m/s, 161° | - | - |
| 1778017242 | 8.33° C | 62% | 1012.7 hPa | 0.51 mm | 0 m/s | - | - |
| 1778016942 | 8.33° C | 63% | 1012.7 hPa | 0.51 mm | 0.89 m/s, 172° | - | - |
| 1778016642 | 8.33° C | 63% | 1012.6 hPa | 0.51 mm | 1.79 m/s, 172° | - | - |
| 1778016342 | 8.33° C | 63% | 1012.7 hPa | 0.51 mm | 1.34 m/s, 203° | - | - |
| 1778016042 | 8.89° C | 62% | 1012.7 hPa | 0.51 mm | 1.34 m/s, 139° | - | - |
| 1778015742 | 8.89° C | 61% | 1012.8 hPa | 0.51 mm | 2.24 m/s, 185° | - | - |
| 1778015442 | 8.89° C | 60% | 1012.8 hPa | 0.51 mm | 0.89 m/s, 179° | - | - |
| 1778015142 | 8.89° C | 58% | 1012.7 hPa | 0.51 mm | 1.34 m/s, 195° | - | - |
* Rain since midnight (hover to see other rain measurements)
** Current wind speed in m/s (hover to see current wind gust speed)